sensor_id;sensor_type;location;lat;lon;timestamp;P1;durP1;ratioP1;P2;durP2;ratioP2
24559;SDS011;12727;49.934;8.656;2024-03-07T00:02:18;48.00;;;29.30;;
24559;SDS011;12727;49.934;8.656;2024-03-07T00:04:44;47.92;;;28.33;;
24559;SDS011;12727;49.934;8.656;2024-03-07T00:07:10;48.60;;;29.05;;
24559;SDS011;12727;49.934;8.656;2024-03-07T00:09:35;50.58;;;30.08;;
24559;SDS011;12727;49.934;8.656;2024-03-07T00:12:04;50.05;;;30.25;;
24559;SDS011;12727;49.934;8.656;2024-03-07T00:14:32;50.90;;;28.77;;
24559;SDS011;12727;49.934;8.656;2024-03-07T00:16:59;51.97;;;30.00;;
24559;SDS011;12727;49.934;8.656;2024-03-07T00:19:24;52.95;;;29.10;;
24559;SDS011;12727;49.934;8.656;2024-03-07T00:21:55;51.35;;;28.83;;
24559;SDS011;12727;49.934;8.656;2024-03-07T00:24:21;48.60;;;28.23;;
24559;SDS011;12727;49.934;8.656;2024-03-07T00:26:47;47.92;;;29.48;;
24559;SDS011;12727;49.934;8.656;2024-03-07T00:29:16;51.13;;;28.83;;
24559;SDS011;12727;49.934;8.656;2024-03-07T00:31:43;46.80;;;28.60;;
24559;SDS011;12727;49.934;8.656;2024-03-07T00:34:09;50.80;;;29.33;;
24559;SDS011;12727;49.934;8.656;2024-03-07T00:36:35;53.55;;;29.77;;
24559;SDS011;12727;49.934;8.656;2024-03-07T00:39:00;49.40;;;29.33;;
24559;SDS011;12727;49.934;8.656;2024-03-07T00:41:26;49.95;;;29.65;;
24559;SDS011;12727;49.934;8.656;2024-03-07T00:43:51;48.55;;;28.25;;
24559;SDS011;12727;49.934;8.656;2024-03-07T00:46:17;54.10;;;29.55;;
24559;SDS011;12727;49.934;8.656;2024-03-07T00:48:42;52.72;;;29.60;;
24559;SDS011;12727;49.934;8.656;2024-03-07T00:51:10;47.35;;;29.20;;
24559;SDS011;12727;49.934;8.656;2024-03-07T00:53:36;54.00;;;30.73;;
24559;SDS011;12727;49.934;8.656;2024-03-07T00:56:02;54.47;;;30.55;;
24559;SDS011;12727;49.934;8.656;2024-03-07T00:58:27;51.92;;;28.85;;
24559;SDS011;12727;49.934;8.656;2024-03-07T01:00:53;49.17;;;29.77;;
24559;SDS011;12727;49.934;8.656;2024-03-07T01:03:19;49.28;;;28.98;;
24559;SDS011;12727;49.934;8.656;2024-03-07T01:05:44;50.58;;;29.88;;
24559;SDS011;12727;49.934;8.656;2024-03-07T01:08:10;48.00;;;28.42;;
24559;SDS011;12727;49.934;8.656;2024-03-07T01:10:36;49.72;;;29.23;;
24559;SDS011;12727;49.934;8.656;2024-03-07T01:13:01;47.60;;;29.20;;
24559;SDS011;12727;49.934;8.656;2024-03-07T01:15:30;53.40;;;30.35;;
24559;SDS011;12727;49.934;8.656;2024-03-07T01:17:58;52.85;;;30.45;;
24559;SDS011;12727;49.934;8.656;2024-03-07T01:20:24;50.05;;;28.85;;
24559;SDS011;12727;49.934;8.656;2024-03-07T01:22:50;51.63;;;29.48;;
24559;SDS011;12727;49.934;8.656;2024-03-07T01:25:16;50.75;;;29.02;;
24559;SDS011;12727;49.934;8.656;2024-03-07T01:27:42;47.53;;;29.40;;
24559;SDS011;12727;49.934;8.656;2024-03-07T01:30:08;49.40;;;28.73;;
24559;SDS011;12727;49.934;8.656;2024-03-07T01:32:34;47.13;;;28.63;;
24559;SDS011;12727;49.934;8.656;2024-03-07T01:34:59;48.03;;;28.63;;
24559;SDS011;12727;49.934;8.656;2024-03-07T01:37:25;52.00;;;28.83;;
24559;SDS011;12727;49.934;8.656;2024-03-07T01:39:51;49.70;;;29.48;;
24559;SDS011;12727;49.934;8.656;2024-03-07T01:42:17;46.33;;;28.88;;
24559;SDS011;12727;49.934;8.656;2024-03-07T01:44:43;49.58;;;29.33;;
24559;SDS011;12727;49.934;8.656;2024-03-07T01:47:09;53.53;;;30.20;;
24559;SDS011;12727;49.934;8.656;2024-03-07T01:49:35;51.33;;;29.35;;
24559;SDS011;12727;49.934;8.656;2024-03-07T01:52:01;51.67;;;29.23;;
24559;SDS011;12727;49.934;8.656;2024-03-07T01:54:27;52.72;;;28.95;;
24559;SDS011;12727;49.934;8.656;2024-03-07T01:56:53;47.90;;;28.23;;
24559;SDS011;12727;49.934;8.656;2024-03-07T01:59:20;50.88;;;29.75;;
24559;SDS011;12727;49.934;8.656;2024-03-07T02:01:46;50.53;;;30.42;;
24559;SDS011;12727;49.934;8.656;2024-03-07T02:04:12;53.45;;;30.25;;
24559;SDS011;12727;49.934;8.656;2024-03-07T02:06:39;47.33;;;27.73;;
24559;SDS011;12727;49.934;8.656;2024-03-07T02:09:04;51.80;;;28.92;;
24559;SDS011;12727;49.934;8.656;2024-03-07T02:11:30;52.40;;;29.35;;
24559;SDS011;12727;49.934;8.656;2024-03-07T02:13:56;52.97;;;30.20;;
24559;SDS011;12727;49.934;8.656;2024-03-07T02:16:22;56.88;;;30.33;;
24559;SDS011;12727;49.934;8.656;2024-03-07T02:18:48;50.05;;;29.27;;
24559;SDS011;12727;49.934;8.656;2024-03-07T02:21:15;51.88;;;29.10;;
24559;SDS011;12727;49.934;8.656;2024-03-07T02:23:40;45.67;;;26.50;;
24559;SDS011;12727;49.934;8.656;2024-03-07T02:26:06;43.17;;;25.33;;
24559;SDS011;12727;49.934;8.656;2024-03-07T02:28:33;46.13;;;26.20;;
24559;SDS011;12727;49.934;8.656;2024-03-07T02:30:59;47.38;;;26.58;;
24559;SDS011;12727;49.934;8.656;2024-03-07T02:33:25;46.38;;;27.27;;
24559;SDS011;12727;49.934;8.656;2024-03-07T02:35:50;52.75;;;28.35;;
24559;SDS011;12727;49.934;8.656;2024-03-07T02:38:16;49.47;;;28.23;;
24559;SDS011;12727;49.934;8.656;2024-03-07T02:40:42;51.45;;;27.45;;
24559;SDS011;12727;49.934;8.656;2024-03-07T02:43:08;53.50;;;28.45;;
24559;SDS011;12727;49.934;8.656;2024-03-07T02:45:33;55.67;;;28.20;;
24559;SDS011;12727;49.934;8.656;2024-03-07T02:47:59;56.97;;;30.42;;
24559;SDS011;12727;49.934;8.656;2024-03-07T02:50:25;54.90;;;30.63;;
24559;SDS011;12727;49.934;8.656;2024-03-07T02:52:50;55.83;;;29.92;;
24559;SDS011;12727;49.934;8.656;2024-03-07T02:55:17;48.67;;;26.55;;
24559;SDS011;12727;49.934;8.656;2024-03-07T02:57:44;49.47;;;27.40;;
24559;SDS011;12727;49.934;8.656;2024-03-07T03:00:10;60.53;;;29.38;;
24559;SDS011;12727;49.934;8.656;2024-03-07T03:02:46;60.97;;;30.25;;
24559;SDS011;12727;49.934;8.656;2024-03-07T03:05:13;56.13;;;28.83;;
24559;SDS011;12727;49.934;8.656;2024-03-07T03:07:39;56.03;;;30.23;;
24559;SDS011;12727;49.934;8.656;2024-03-07T03:10:06;58.55;;;29.88;;
24559;SDS011;12727;49.934;8.656;2024-03-07T03:12:35;55.17;;;29.42;;
24559;SDS011;12727;49.934;8.656;2024-03-07T03:15:06;56.08;;;29.10;;
24559;SDS011;12727;49.934;8.656;2024-03-07T03:17:32;59.75;;;29.67;;
24559;SDS011;12727;49.934;8.656;2024-03-07T03:19:58;54.63;;;28.80;;
24559;SDS011;12727;49.934;8.656;2024-03-07T03:22:24;52.58;;;27.42;;
24559;SDS011;12727;49.934;8.656;2024-03-07T03:24:51;58.28;;;30.20;;
24559;SDS011;12727;49.934;8.656;2024-03-07T03:27:20;64.28;;;30.52;;
24559;SDS011;12727;49.934;8.656;2024-03-07T03:29:46;61.22;;;30.40;;
24559;SDS011;12727;49.934;8.656;2024-03-07T03:32:12;64.85;;;30.30;;
24559;SDS011;12727;49.934;8.656;2024-03-07T03:34:38;51.25;;;28.73;;
24559;SDS011;12727;49.934;8.656;2024-03-07T03:37:04;60.08;;;30.52;;
24559;SDS011;12727;49.934;8.656;2024-03-07T03:39:29;57.50;;;29.13;;
24559;SDS011;12727;49.934;8.656;2024-03-07T03:41:55;63.22;;;30.67;;
24559;SDS011;12727;49.934;8.656;2024-03-07T03:44:20;53.08;;;27.75;;
24559;SDS011;12727;49.934;8.656;2024-03-07T03:46:46;66.63;;;30.45;;
24559;SDS011;12727;49.934;8.656;2024-03-07T03:49:11;56.25;;;27.98;;
24559;SDS011;12727;49.934;8.656;2024-03-07T03:51:37;51.55;;;26.75;;
24559;SDS011;12727;49.934;8.656;2024-03-07T03:54:02;55.05;;;28.45;;
24559;SDS011;12727;49.934;8.656;2024-03-07T03:56:28;49.55;;;25.80;;
24559;SDS011;12727;49.934;8.656;2024-03-07T03:58:53;50.42;;;26.42;;
24559;SDS011;12727;49.934;8.656;2024-03-07T04:01:19;48.53;;;25.48;;
24559;SDS011;12727;49.934;8.656;2024-03-07T04:03:44;58.45;;;28.17;;
24559;SDS011;12727;49.934;8.656;2024-03-07T04:06:11;56.20;;;28.02;;
24559;SDS011;12727;49.934;8.656;2024-03-07T04:08:37;59.78;;;29.48;;
24559;SDS011;12727;49.934;8.656;2024-03-07T04:11:03;61.92;;;29.92;;
24559;SDS011;12727;49.934;8.656;2024-03-07T04:13:29;64.30;;;31.23;;
24559;SDS011;12727;49.934;8.656;2024-03-07T04:15:55;57.60;;;29.20;;
24559;SDS011;12727;49.934;8.656;2024-03-07T04:18:21;59.72;;;28.88;;
24559;SDS011;12727;49.934;8.656;2024-03-07T04:20:46;62.97;;;30.52;;
24559;SDS011;12727;49.934;8.656;2024-03-07T04:23:12;69.63;;;32.22;;
24559;SDS011;12727;49.934;8.656;2024-03-07T04:25:37;65.95;;;31.35;;
24559;SDS011;12727;49.934;8.656;2024-03-07T04:28:03;69.22;;;32.08;;
24559;SDS011;12727;49.934;8.656;2024-03-07T04:30:29;66.50;;;31.00;;
24559;SDS011;12727;49.934;8.656;2024-03-07T04:32:55;66.82;;;31.73;;
24559;SDS011;12727;49.934;8.656;2024-03-07T04:35:23;69.10;;;31.45;;
24559;SDS011;12727;49.934;8.656;2024-03-07T04:37:49;67.15;;;30.67;;
24559;SDS011;12727;49.934;8.656;2024-03-07T04:40:15;65.53;;;30.30;;
24559;SDS011;12727;49.934;8.656;2024-03-07T04:42:41;67.60;;;30.60;;
24559;SDS011;12727;49.934;8.656;2024-03-07T04:45:08;66.65;;;31.70;;
24559;SDS011;12727;49.934;8.656;2024-03-07T04:47:36;65.78;;;31.92;;
24559;SDS011;12727;49.934;8.656;2024-03-07T04:50:02;65.85;;;32.83;;
24559;SDS011;12727;49.934;8.656;2024-03-07T04:52:27;68.35;;;33.05;;
24559;SDS011;12727;49.934;8.656;2024-03-07T04:54:53;70.97;;;32.47;;
24559;SDS011;12727;49.934;8.656;2024-03-07T04:57:20;71.88;;;32.58;;
24559;SDS011;12727;49.934;8.656;2024-03-07T04:59:45;72.70;;;33.47;;
24559;SDS011;12727;49.934;8.656;2024-03-07T05:02:11;72.13;;;34.13;;
24559;SDS011;12727;49.934;8.656;2024-03-07T05:04:36;73.45;;;32.90;;
24559;SDS011;12727;49.934;8.656;2024-03-07T05:07:02;67.03;;;31.58;;
24559;SDS011;12727;49.934;8.656;2024-03-07T05:09:28;75.43;;;33.45;;
24559;SDS011;12727;49.934;8.656;2024-03-07T05:11:54;72.25;;;32.78;;
24559;SDS011;12727;49.934;8.656;2024-03-07T05:14:20;76.13;;;34.67;;
24559;SDS011;12727;49.934;8.656;2024-03-07T05:16:47;74.72;;;34.85;;
24559;SDS011;12727;49.934;8.656;2024-03-07T05:19:30;72.90;;;33.53;;
24559;SDS011;12727;49.934;8.656;2024-03-07T05:21:59;73.38;;;33.38;;
24559;SDS011;12727;49.934;8.656;2024-03-07T05:24:24;72.85;;;33.47;;
24559;SDS011;12727;49.934;8.656;2024-03-07T05:26:50;76.97;;;33.90;;
24559;SDS011;12727;49.934;8.656;2024-03-07T05:29:18;79.03;;;33.47;;
24559;SDS011;12727;49.934;8.656;2024-03-07T05:31:44;72.43;;;32.72;;
24559;SDS011;12727;49.934;8.656;2024-03-07T05:34:13;70.88;;;32.47;;
24559;SDS011;12727;49.934;8.656;2024-03-07T05:36:45;68.25;;;32.25;;
24559;SDS011;12727;49.934;8.656;2024-03-07T05:39:12;72.70;;;32.55;;
24559;SDS011;12727;49.934;8.656;2024-03-07T05:41:39;76.90;;;33.35;;
24559;SDS011;12727;49.934;8.656;2024-03-07T05:44:05;68.85;;;31.52;;
24559;SDS011;12727;49.934;8.656;2024-03-07T05:46:43;76.18;;;33.22;;
24559;SDS011;12727;49.934;8.656;2024-03-07T05:49:13;74.75;;;32.58;;
24559;SDS011;12727;49.934;8.656;2024-03-07T05:51:39;73.22;;;32.50;;
24559;SDS011;12727;49.934;8.656;2024-03-07T05:54:10;82.93;;;34.55;;
24559;SDS011;12727;49.934;8.656;2024-03-07T05:56:37;67.88;;;32.20;;
24559;SDS011;12727;49.934;8.656;2024-03-07T05:59:04;72.88;;;33.13;;
24559;SDS011;12727;49.934;8.656;2024-03-07T06:01:32;81.03;;;35.08;;
24559;SDS011;12727;49.934;8.656;2024-03-07T06:03:59;81.28;;;35.10;;
24559;SDS011;12727;49.934;8.656;2024-03-07T06:06:30;79.22;;;36.00;;
24559;SDS011;12727;49.934;8.656;2024-03-07T06:08:58;72.80;;;33.55;;
24559;SDS011;12727;49.934;8.656;2024-03-07T06:11:32;73.30;;;33.47;;
24559;SDS011;12727;49.934;8.656;2024-03-07T06:13:58;78.45;;;34.40;;
24559;SDS011;12727;49.934;8.656;2024-03-07T06:16:24;78.32;;;34.20;;
24559;SDS011;12727;49.934;8.656;2024-03-07T06:18:49;80.22;;;34.92;;
24559;SDS011;12727;49.934;8.656;2024-03-07T06:21:17;79.47;;;34.17;;
24559;SDS011;12727;49.934;8.656;2024-03-07T06:23:43;79.38;;;36.13;;
24559;SDS011;12727;49.934;8.656;2024-03-07T06:26:12;77.18;;;34.75;;
24559;SDS011;12727;49.934;8.656;2024-03-07T06:28:41;64.07;;;31.45;;
24559;SDS011;12727;49.934;8.656;2024-03-07T06:31:07;68.38;;;34.08;;
24559;SDS011;12727;49.934;8.656;2024-03-07T06:33:33;67.13;;;33.88;;
24559;SDS011;12727;49.934;8.656;2024-03-07T06:35:59;65.45;;;32.05;;
24559;SDS011;12727;49.934;8.656;2024-03-07T06:38:26;62.65;;;31.25;;
24559;SDS011;12727;49.934;8.656;2024-03-07T06:40:52;61.30;;;32.45;;
24559;SDS011;12727;49.934;8.656;2024-03-07T06:43:17;61.60;;;33.15;;
24559;SDS011;12727;49.934;8.656;2024-03-07T06:45:43;65.55;;;31.55;;
24559;SDS011;12727;49.934;8.656;2024-03-07T06:48:11;58.17;;;31.20;;
24559;SDS011;12727;49.934;8.656;2024-03-07T06:50:37;61.72;;;31.17;;
24559;SDS011;12727;49.934;8.656;2024-03-07T06:53:04;52.97;;;29.55;;
24559;SDS011;12727;49.934;8.656;2024-03-07T06:55:31;53.95;;;30.10;;
24559;SDS011;12727;49.934;8.656;2024-03-07T06:57:58;52.30;;;29.05;;
24559;SDS011;12727;49.934;8.656;2024-03-07T07:00:24;55.78;;;29.25;;
24559;SDS011;12727;49.934;8.656;2024-03-07T07:02:51;55.15;;;28.17;;
24559;SDS011;12727;49.934;8.656;2024-03-07T07:05:19;54.78;;;28.80;;
24559;SDS011;12727;49.934;8.656;2024-03-07T07:07:45;58.42;;;28.23;;
24559;SDS011;12727;49.934;8.656;2024-03-07T07:10:11;50.75;;;27.33;;
24559;SDS011;12727;49.934;8.656;2024-03-07T07:12:47;47.78;;;27.45;;
24559;SDS011;12727;49.934;8.656;2024-03-07T07:15:18;50.13;;;27.17;;
24559;SDS011;12727;49.934;8.656;2024-03-07T07:17:45;50.95;;;27.65;;
24559;SDS011;12727;49.934;8.656;2024-03-07T07:20:11;53.30;;;26.77;;
24559;SDS011;12727;49.934;8.656;2024-03-07T07:22:40;52.13;;;27.50;;
24559;SDS011;12727;49.934;8.656;2024-03-07T07:25:06;45.50;;;25.23;;
24559;SDS011;12727;49.934;8.656;2024-03-07T07:27:48;47.90;;;27.30;;
24559;SDS011;12727;49.934;8.656;2024-03-07T07:30:15;45.83;;;25.08;;
24559;SDS011;12727;49.934;8.656;2024-03-07T07:32:42;43.72;;;25.83;;
24559;SDS011;12727;49.934;8.656;2024-03-07T07:35:09;48.30;;;25.85;;
24559;SDS011;12727;49.934;8.656;2024-03-07T07:37:47;43.65;;;24.83;;
24559;SDS011;12727;49.934;8.656;2024-03-07T07:40:15;39.38;;;23.17;;
24559;SDS011;12727;49.934;8.656;2024-03-07T07:42:43;42.03;;;24.15;;
24559;SDS011;12727;49.934;8.656;2024-03-07T07:45:11;39.75;;;23.98;;
24559;SDS011;12727;49.934;8.656;2024-03-07T07:47:41;41.80;;;23.23;;
24559;SDS011;12727;49.934;8.656;2024-03-07T07:50:09;40.38;;;22.58;;
24559;SDS011;12727;49.934;8.656;2024-03-07T07:52:42;35.10;;;22.00;;
24559;SDS011;12727;49.934;8.656;2024-03-07T07:55:11;38.70;;;23.25;;
24559;SDS011;12727;49.934;8.656;2024-03-07T07:57:45;34.97;;;21.88;;
24559;SDS011;12727;49.934;8.656;2024-03-07T08:00:17;34.45;;;21.35;;
24559;SDS011;12727;49.934;8.656;2024-03-07T08:02:47;31.92;;;20.02;;
24559;SDS011;12727;49.934;8.656;2024-03-07T08:05:24;34.17;;;21.23;;
24559;SDS011;12727;49.934;8.656;2024-03-07T08:07:52;31.45;;;20.08;;
24559;SDS011;12727;49.934;8.656;2024-03-07T08:10:19;31.60;;;21.02;;
24559;SDS011;12727;49.934;8.656;2024-03-07T08:12:56;31.35;;;19.45;;
24559;SDS011;12727;49.934;8.656;2024-03-07T08:15:22;28.73;;;19.25;;
24559;SDS011;12727;49.934;8.656;2024-03-07T08:17:49;27.23;;;17.95;;
24559;SDS011;12727;49.934;8.656;2024-03-07T08:20:17;26.25;;;16.73;;
24559;SDS011;12727;49.934;8.656;2024-03-07T08:22:47;24.77;;;16.75;;
24559;SDS011;12727;49.934;8.656;2024-03-07T08:25:17;26.48;;;17.20;;
24559;SDS011;12727;49.934;8.656;2024-03-07T08:27:45;25.98;;;16.55;;
24559;SDS011;12727;49.934;8.656;2024-03-07T08:30:13;26.05;;;17.67;;
24559;SDS011;12727;49.934;8.656;2024-03-07T08:32:39;23.67;;;17.15;;
24559;SDS011;12727;49.934;8.656;2024-03-07T08:35:06;25.60;;;17.67;;
24559;SDS011;12727;49.934;8.656;2024-03-07T08:37:40;22.35;;;15.18;;
24559;SDS011;12727;49.934;8.656;2024-03-07T08:40:07;23.13;;;15.85;;
24559;SDS011;12727;49.934;8.656;2024-03-07T08:42:35;23.10;;;16.30;;
24559;SDS011;12727;49.934;8.656;2024-03-07T08:45:02;23.42;;;16.15;;
24559;SDS011;12727;49.934;8.656;2024-03-07T08:47:32;24.40;;;16.25;;
24559;SDS011;12727;49.934;8.656;2024-03-07T08:49:58;21.27;;;15.85;;
24559;SDS011;12727;49.934;8.656;2024-03-07T08:52:24;21.83;;;14.75;;
24559;SDS011;12727;49.934;8.656;2024-03-07T08:54:49;22.17;;;14.57;;
24559;SDS011;12727;49.934;8.656;2024-03-07T08:57:15;23.48;;;15.70;;
24559;SDS011;12727;49.934;8.656;2024-03-07T08:59:43;23.05;;;15.25;;
24559;SDS011;12727;49.934;8.656;2024-03-07T09:02:09;20.55;;;13.48;;
24559;SDS011;12727;49.934;8.656;2024-03-07T09:04:38;22.58;;;14.75;;
24559;SDS011;12727;49.934;8.656;2024-03-07T09:07:04;23.00;;;14.88;;
24559;SDS011;12727;49.934;8.656;2024-03-07T09:09:31;22.33;;;13.10;;
24559;SDS011;12727;49.934;8.656;2024-03-07T09:11:57;22.05;;;14.82;;
24559;SDS011;12727;49.934;8.656;2024-03-07T09:14:22;21.05;;;13.82;;
24559;SDS011;12727;49.934;8.656;2024-03-07T09:16:48;25.17;;;15.20;;
24559;SDS011;12727;49.934;8.656;2024-03-07T09:19:14;22.65;;;15.15;;
24559;SDS011;12727;49.934;8.656;2024-03-07T09:21:44;21.75;;;15.57;;
24559;SDS011;12727;49.934;8.656;2024-03-07T09:24:15;24.45;;;15.57;;
24559;SDS011;12727;49.934;8.656;2024-03-07T09:26:41;23.58;;;14.43;;
24559;SDS011;12727;49.934;8.656;2024-03-07T09:29:06;23.73;;;15.95;;
24559;SDS011;12727;49.934;8.656;2024-03-07T09:31:32;22.63;;;14.32;;
24559;SDS011;12727;49.934;8.656;2024-03-07T09:33:58;25.55;;;15.90;;
24559;SDS011;12727;49.934;8.656;2024-03-07T09:36:24;24.27;;;16.13;;
24559;SDS011;12727;49.934;8.656;2024-03-07T09:38:50;23.88;;;16.70;;
24559;SDS011;12727;49.934;8.656;2024-03-07T09:41:16;24.08;;;16.13;;
24559;SDS011;12727;49.934;8.656;2024-03-07T09:43:46;24.75;;;15.65;;
24559;SDS011;12727;49.934;8.656;2024-03-07T09:46:15;24.95;;;15.82;;
24559;SDS011;12727;49.934;8.656;2024-03-07T09:48:41;23.38;;;16.63;;
24559;SDS011;12727;49.934;8.656;2024-03-07T09:51:07;25.02;;;16.17;;
24559;SDS011;12727;49.934;8.656;2024-03-07T09:53:36;23.33;;;15.80;;
24559;SDS011;12727;49.934;8.656;2024-03-07T09:56:03;23.08;;;15.55;;
24559;SDS011;12727;49.934;8.656;2024-03-07T09:58:31;24.40;;;16.13;;
24559;SDS011;12727;49.934;8.656;2024-03-07T10:00:58;22.23;;;15.27;;
24559;SDS011;12727;49.934;8.656;2024-03-07T10:03:28;24.30;;;15.73;;
24559;SDS011;12727;49.934;8.656;2024-03-07T10:05:54;24.80;;;15.45;;
24559;SDS011;12727;49.934;8.656;2024-03-07T10:08:21;23.40;;;16.17;;
24559;SDS011;12727;49.934;8.656;2024-03-07T10:10:48;23.42;;;16.13;;
24559;SDS011;12727;49.934;8.656;2024-03-07T10:13:14;22.33;;;15.35;;
24559;SDS011;12727;49.934;8.656;2024-03-07T10:15:39;23.20;;;15.52;;
24559;SDS011;12727;49.934;8.656;2024-03-07T10:18:08;22.17;;;15.05;;
24559;SDS011;12727;49.934;8.656;2024-03-07T10:20:36;23.42;;;15.55;;
24559;SDS011;12727;49.934;8.656;2024-03-07T10:23:02;22.80;;;15.38;;
24559;SDS011;12727;49.934;8.656;2024-03-07T10:25:28;25.27;;;15.65;;
24559;SDS011;12727;49.934;8.656;2024-03-07T10:27:54;23.50;;;15.85;;
24559;SDS011;12727;49.934;8.656;2024-03-07T10:30:19;25.58;;;16.52;;
24559;SDS011;12727;49.934;8.656;2024-03-07T10:32:56;23.33;;;14.80;;
24559;SDS011;12727;49.934;8.656;2024-03-07T10:35:23;24.60;;;14.75;;
24559;SDS011;12727;49.934;8.656;2024-03-07T10:37:53;22.75;;;14.65;;
24559;SDS011;12727;49.934;8.656;2024-03-07T10:40:19;23.45;;;14.20;;
24559;SDS011;12727;49.934;8.656;2024-03-07T10:42:47;23.20;;;14.93;;
24559;SDS011;12727;49.934;8.656;2024-03-07T10:45:17;22.05;;;15.05;;
24559;SDS011;12727;49.934;8.656;2024-03-07T10:47:44;21.50;;;15.63;;
24559;SDS011;12727;49.934;8.656;2024-03-07T10:52:59;20.50;;;15.18;;
24559;SDS011;12727;49.934;8.656;2024-03-07T11:01:44;21.23;;;14.73;;
24559;SDS011;12727;49.934;8.656;2024-03-07T11:04:37;21.33;;;15.07;;
24559;SDS011;12727;49.934;8.656;2024-03-07T11:07:04;18.38;;;13.25;;
24559;SDS011;12727;49.934;8.656;2024-03-07T11:09:30;21.33;;;15.38;;
24559;SDS011;12727;49.934;8.656;2024-03-07T11:11:59;20.67;;;15.68;;
24559;SDS011;12727;49.934;8.656;2024-03-07T11:14:28;21.20;;;15.40;;
24559;SDS011;12727;49.934;8.656;2024-03-07T11:16:55;23.42;;;15.52;;
24559;SDS011;12727;49.934;8.656;2024-03-07T11:19:25;21.90;;;15.82;;
24559;SDS011;12727;49.934;8.656;2024-03-07T11:22:01;20.85;;;15.07;;
24559;SDS011;12727;49.934;8.656;2024-03-07T11:24:28;25.23;;;16.33;;
24559;SDS011;12727;49.934;8.656;2024-03-07T11:26:56;22.98;;;16.45;;
24559;SDS011;12727;49.934;8.656;2024-03-07T11:32:19;23.50;;;16.67;;
24559;SDS011;12727;49.934;8.656;2024-03-07T11:34:48;21.35;;;15.52;;
24559;SDS011;12727;49.934;8.656;2024-03-07T11:40:11;22.25;;;14.23;;
24559;SDS011;12727;49.934;8.656;2024-03-07T11:42:46;22.48;;;15.15;;
24559;SDS011;12727;49.934;8.656;2024-03-07T11:45:16;21.27;;;14.65;;
24559;SDS011;12727;49.934;8.656;2024-03-07T11:47:52;21.90;;;14.80;;
24559;SDS011;12727;49.934;8.656;2024-03-07T11:50:25;23.98;;;14.35;;
24559;SDS011;12727;49.934;8.656;2024-03-07T11:52:54;19.88;;;12.40;;
24559;SDS011;12727;49.934;8.656;2024-03-07T11:55:21;25.10;;;14.38;;
24559;SDS011;12727;49.934;8.656;2024-03-07T11:57:48;21.48;;;14.43;;
24559;SDS011;12727;49.934;8.656;2024-03-07T12:00:15;20.58;;;13.65;;
24559;SDS011;12727;49.934;8.656;2024-03-07T12:02:43;20.60;;;13.75;;
24559;SDS011;12727;49.934;8.656;2024-03-07T12:05:09;19.55;;;13.35;;
24559;SDS011;12727;49.934;8.656;2024-03-07T12:07:35;17.17;;;12.10;;
24559;SDS011;12727;49.934;8.656;2024-03-07T12:10:01;19.38;;;12.88;;
24559;SDS011;12727;49.934;8.656;2024-03-07T12:12:29;20.83;;;13.20;;
24559;SDS011;12727;49.934;8.656;2024-03-07T12:14:55;20.73;;;13.50;;
24559;SDS011;12727;49.934;8.656;2024-03-07T12:17:21;16.13;;;11.05;;
24559;SDS011;12727;49.934;8.656;2024-03-07T12:19:47;18.83;;;11.38;;
24559;SDS011;12727;49.934;8.656;2024-03-07T12:22:18;17.95;;;12.05;;
24559;SDS011;12727;49.934;8.656;2024-03-07T12:24:47;18.98;;;11.95;;
24559;SDS011;12727;49.934;8.656;2024-03-07T12:27:24;18.33;;;10.80;;
24559;SDS011;12727;49.934;8.656;2024-03-07T12:29:49;17.70;;;11.73;;
24559;SDS011;12727;49.934;8.656;2024-03-07T12:32:17;18.75;;;11.90;;
24559;SDS011;12727;49.934;8.656;2024-03-07T12:34:43;16.05;;;11.55;;
24559;SDS011;12727;49.934;8.656;2024-03-07T12:37:14;16.58;;;10.98;;
24559;SDS011;12727;49.934;8.656;2024-03-07T12:39:41;16.88;;;11.07;;
24559;SDS011;12727;49.934;8.656;2024-03-07T12:42:18;15.85;;;9.98;;
24559;SDS011;12727;49.934;8.656;2024-03-07T12:44:45;19.48;;;12.43;;
24559;SDS011;12727;49.934;8.656;2024-03-07T12:47:17;15.90;;;11.00;;
24559;SDS011;12727;49.934;8.656;2024-03-07T12:49:43;15.02;;;10.40;;
24559;SDS011;12727;49.934;8.656;2024-03-07T12:52:09;14.68;;;9.85;;
24559;SDS011;12727;49.934;8.656;2024-03-07T12:54:35;16.50;;;10.77;;
24559;SDS011;12727;49.934;8.656;2024-03-07T12:57:08;15.47;;;10.17;;
24559;SDS011;12727;49.934;8.656;2024-03-07T12:59:35;14.23;;;10.35;;
24559;SDS011;12727;49.934;8.656;2024-03-07T13:02:05;15.15;;;9.68;;
24559;SDS011;12727;49.934;8.656;2024-03-07T13:04:35;15.48;;;9.90;;
24559;SDS011;12727;49.934;8.656;2024-03-07T13:07:05;14.15;;;10.55;;
24559;SDS011;12727;49.934;8.656;2024-03-07T13:09:32;13.93;;;9.63;;
24559;SDS011;12727;49.934;8.656;2024-03-07T13:11:58;16.17;;;10.93;;
24559;SDS011;12727;49.934;8.656;2024-03-07T13:14:28;15.80;;;10.10;;
24559;SDS011;12727;49.934;8.656;2024-03-07T13:17:00;13.73;;;9.88;;
24559;SDS011;12727;49.934;8.656;2024-03-07T13:19:27;14.27;;;9.93;;
24559;SDS011;12727;49.934;8.656;2024-03-07T13:21:53;14.10;;;9.93;;
24559;SDS011;12727;49.934;8.656;2024-03-07T13:24:19;16.40;;;10.77;;
24559;SDS011;12727;49.934;8.656;2024-03-07T13:26:46;17.73;;;11.43;;
24559;SDS011;12727;49.934;8.656;2024-03-07T13:29:14;16.08;;;10.23;;
24559;SDS011;12727;49.934;8.656;2024-03-07T13:31:40;12.80;;;9.43;;
24559;SDS011;12727;49.934;8.656;2024-03-07T13:34:10;15.50;;;10.15;;
24559;SDS011;12727;49.934;8.656;2024-03-07T13:36:40;18.17;;;10.10;;
24559;SDS011;12727;49.934;8.656;2024-03-07T13:39:06;12.60;;;9.55;;
24559;SDS011;12727;49.934;8.656;2024-03-07T13:41:36;15.57;;;10.48;;
24559;SDS011;12727;49.934;8.656;2024-03-07T13:44:03;16.70;;;9.98;;
24559;SDS011;12727;49.934;8.656;2024-03-07T13:46:32;15.05;;;9.02;;
24559;SDS011;12727;49.934;8.656;2024-03-07T13:49:01;14.95;;;8.95;;
24559;SDS011;12727;49.934;8.656;2024-03-07T13:51:37;13.40;;;8.95;;
24559;SDS011;12727;49.934;8.656;2024-03-07T13:54:14;12.50;;;8.98;;
24559;SDS011;12727;49.934;8.656;2024-03-07T14:00:25;12.50;;;8.23;;
24559;SDS011;12727;49.934;8.656;2024-03-07T14:03:19;14.73;;;9.60;;
24559;SDS011;12727;49.934;8.656;2024-03-07T14:06:08;13.32;;;8.10;;
24559;SDS011;12727;49.934;8.656;2024-03-07T14:11:52;14.60;;;9.27;;
24559;SDS011;12727;49.934;8.656;2024-03-07T14:20:50;16.55;;;8.27;;
24559;SDS011;12727;49.934;8.656;2024-03-07T14:26:47;12.07;;;7.90;;
24559;SDS011;12727;49.934;8.656;2024-03-07T14:32:22;13.30;;;8.15;;
24559;SDS011;12727;49.934;8.656;2024-03-07T14:35:03;13.70;;;9.25;;
24559;SDS011;12727;49.934;8.656;2024-03-07T14:40:36;12.75;;;7.95;;
24559;SDS011;12727;49.934;8.656;2024-03-07T14:43:03;11.15;;;6.97;;
24559;SDS011;12727;49.934;8.656;2024-03-07T14:45:36;13.27;;;8.05;;
24559;SDS011;12727;49.934;8.656;2024-03-07T14:48:05;13.60;;;8.18;;
24559;SDS011;12727;49.934;8.656;2024-03-07T14:50:35;11.63;;;7.97;;
24559;SDS011;12727;49.934;8.656;2024-03-07T14:53:01;12.70;;;8.90;;
24559;SDS011;12727;49.934;8.656;2024-03-07T14:55:27;14.52;;;9.18;;
24559;SDS011;12727;49.934;8.656;2024-03-07T14:57:52;12.80;;;7.75;;
24559;SDS011;12727;49.934;8.656;2024-03-07T15:00:18;12.20;;;8.45;;
24559;SDS011;12727;49.934;8.656;2024-03-07T15:02:47;13.35;;;8.57;;
24559;SDS011;12727;49.934;8.656;2024-03-07T15:05:14;13.15;;;7.88;;